Time;durP1;ratioP1;P1;durP2;ratioP2;P2;SDS_P1;SDS_P2;PMS_P1;PMS_P2;Temp;Humidity;BMP_temperature;BMP_pressure;BME280_temperature;BME280_humidity;BME280_pressure;Samples;Min_cycle;Max_cycle;Signal;HPM_P1;HPM_P2
2021/01/24 00:01:32;;;;;;;0.10;0.10;;;4.50;99.90;;;;;;5010706;28;20173;-84
2021/01/24 00:03:58;;;;;;;0.27;0.13;;;4.60;99.90;;;;;;5012485;28;20180;-85
2021/01/24 00:06:23;;;;;;;0.27;0.27;;;4.80;99.90;;;;;;5010864;28;20689;-85
2021/01/24 00:08:49;;;;;;;0.27;0.27;;;4.90;99.90;;;;;;5012063;28;20210;-84
2021/01/24 00:11:14;;;;;;;0.07;0.07;;;4.90;99.90;;;;;;5012191;28;20185;-84
2021/01/24 00:13:40;;;;;;;0.27;0.27;;;4.80;99.90;;;;;;5012733;28;20185;-85
2021/01/24 00:16:05;;;;;;;0.40;0.40;;;4.90;99.90;;;;;;5011562;28;20273;-85
2021/01/24 00:18:31;;;;;;;0.20;0.20;;;5.00;99.90;;;;;;5010981;28;20762;-84
2021/01/24 00:20:57;;;;;;;0.20;0.20;;;5.00;99.90;;;;;;5017011;28;20215;-85
2021/01/24 00:23:22;;;;;;;0.27;0.27;;;5.00;99.90;;;;;;5007176;28;20223;-85
2021/01/24 00:25:48;;;;;;;0.70;0.70;;;5.10;99.90;;;;;;5011004;28;20559;-84
2021/01/24 00:28:19;;;;;;;0.20;0.20;;;5.10;99.90;;;;;;5011128;28;20177;-83
2021/01/24 00:30:44;;;;;;;0.07;0.07;;;5.20;99.90;;;;;;5010661;28;20196;-86
2021/01/24 00:33:10;;;;;;;0.20;0.20;;;5.20;99.90;;;;;;5010914;28;20182;-85
2021/01/24 00:35:36;;;;;;;1.10;0.60;;;5.20;99.90;;;;;;5010728;28;20555;-85
2021/01/24 00:38:10;;;;;;;0.67;0.40;;;5.20;99.90;;;;;;5010811;28;20212;-85
2021/01/24 00:40:36;;;;;;;0.10;0.10;;;5.30;99.90;;;;;;5010267;28;20198;-84
2021/01/24 00:43:01;;;;;;;0.30;0.30;;;5.30;99.90;;;;;;5010665;28;20210;-84
2021/01/24 00:45:27;;;;;;;0.43;0.43;;;5.30;99.90;;;;;;5011382;28;20183;-84
2021/01/24 00:47:53;;;;;;;0.10;0.10;;;5.40;99.90;;;;;;5010828;28;20650;-85
2021/01/24 00:50:18;;;;;;;0.43;0.43;;;5.40;99.90;;;;;;5005634;28;20210;-84
2021/01/24 00:52:44;;;;;;;0.07;0.07;;;5.40;99.90;;;;;;5012552;28;20186;-85
2021/01/24 00:55:10;;;;;;;0.10;0.10;;;5.20;99.90;;;;;;5013119;28;20183;-84
2021/01/24 00:57:35;;;;;;;0.30;0.30;;;5.10;99.90;;;;;;5013421;28;20206;-85
2021/01/24 01:00:02;;;;;;;0.00;0.00;;;4.90;99.90;;;;;;5011960;28;20292;-83
2021/01/24 01:02:28;;;;;;;0.03;0.03;;;4.80;99.90;;;;;;5011688;28;20686;-86
2021/01/24 01:04:53;;;;;;;0.20;0.20;;;4.60;99.90;;;;;;5011027;28;20185;-83
2021/01/24 01:07:19;;;;;;;0.10;0.10;;;4.50;99.90;;;;;;5006752;28;20183;-84
2021/01/24 01:09:44;;;;;;;0.10;0.10;;;4.30;99.90;;;;;;5015005;28;20241;-84
2021/01/24 01:12:10;;;;;;;0.00;0.00;;;4.20;99.90;;;;;;5016301;28;20177;-85
2021/01/24 01:14:36;;;;;;;0.93;0.40;;;4.10;99.90;;;;;;5015004;28;20181;-83
2021/01/24 01:17:02;;;;;;;0.10;0.10;;;3.90;99.90;;;;;;5014636;28;20237;-83
2021/01/24 01:19:27;;;;;;;0.20;0.20;;;3.70;99.90;;;;;;5015793;28;20200;-85
2021/01/24 01:21:53;;;;;;;0.10;0.10;;;3.50;99.90;;;;;;5013605;28;20183;-86
2021/01/24 01:24:18;;;;;;;0.10;0.10;;;3.40;99.90;;;;;;5007093;28;20177;-84
2021/01/24 01:26:44;;;;;;;0.10;0.10;;;3.30;99.90;;;;;;4999079;28;20197;-84
2021/01/24 01:29:10;;;;;;;0.10;0.10;;;3.20;99.90;;;;;;5013317;28;20272;-85
2021/01/24 01:32:26;;;;;;;0.13;0.13;;;3.10;99.90;;;;;;5012927;28;20187;-85
2021/01/24 01:34:52;;;;;;;0.10;0.10;;;3.00;99.90;;;;;;5013088;28;20183;-85
2021/01/24 01:37:17;;;;;;;0.10;0.10;;;3.00;99.90;;;;;;5014678;28;20226;-84
2021/01/24 01:39:46;;;;;;;0.10;0.10;;;2.90;99.90;;;;;;5013929;28;20199;-84
2021/01/24 01:42:16;;;;;;;0.30;0.20;;;2.90;99.90;;;;;;5013325;28;20666;-84
2021/01/24 01:44:42;;;;;;;0.00;0.00;;;2.80;99.90;;;;;;5006064;28;20229;-84
2021/01/24 01:47:10;;;;;;;0.10;0.10;;;2.80;99.90;;;;;;5013054;28;20179;-83
2021/01/24 01:49:36;;;;;;;0.10;0.10;;;2.70;99.90;;;;;;5013687;28;20208;-85
2021/01/24 01:52:01;;;;;;;0.07;0.07;;;2.70;99.90;;;;;;5013044;28;20666;-84
2021/01/24 01:54:27;;;;;;;0.00;0.00;;;2.70;99.90;;;;;;5013404;28;20187;-86
2021/01/24 01:56:54;;;;;;;0.20;0.20;;;2.70;99.90;;;;;;5015446;28;20249;-83
2021/01/24 01:59:20;;;;;;;0.00;0.00;;;2.60;99.90;;;;;;5013968;28;20680;-84
2021/01/24 02:01:46;;;;;;;0.10;0.10;;;2.60;99.90;;;;;;5012867;28;20179;-84
2021/01/24 02:04:24;;;;;;;0.10;0.10;;;2.60;99.90;;;;;;5013532;28;20187;-84
2021/01/24 02:07:03;;;;;;;0.00;0.00;;;2.70;99.90;;;;;;5015131;28;20202;-85
2021/01/24 02:09:50;;;;;;;0.00;0.00;;;2.70;99.90;;;;;;5014256;28;20215;-87
2021/01/24 02:12:24;;;;;;;0.20;0.20;;;2.70;99.90;;;;;;5015076;28;20190;-84
2021/01/24 02:14:59;;;;;;;0.00;0.00;;;2.70;99.90;;;;;;5009452;28;20652;-84
2021/01/24 02:17:26;;;;;;;0.93;0.20;;;2.80;99.90;;;;;;4998594;28;20209;-85
2021/01/24 02:19:51;;;;;;;0.10;0.10;;;2.70;99.90;;;;;;5012168;28;20230;-84
2021/01/24 02:22:19;;;;;;;0.00;0.00;;;2.80;99.90;;;;;;5013483;28;20218;-85
2021/01/24 02:24:53;;;;;;;0.00;0.00;;;2.90;99.90;;;;;;5012806;28;20284;-85
2021/01/24 02:27:56;;;;;;;0.10;0.10;;;2.90;99.90;;;;;;5013859;28;20179;-85
2021/01/24 02:30:28;;;;;;;0.10;0.10;;;2.90;99.90;;;;;;4988311;28;20207;-84
2021/01/24 02:33:00;;;;;;;0.03;0.03;;;2.90;99.90;;;;;;5006449;28;20194;-84
2021/01/24 02:35:31;;;;;;;0.10;0.10;;;2.90;99.90;;;;;;5004257;28;20547;-84
2021/01/24 02:38:00;;;;;;;1.70;0.40;;;3.00;99.90;;;;;;5029577;28;20212;-84
2021/01/24 02:40:28;;;;;;;0.10;0.10;;;3.00;99.90;;;;;;5012291;28;20197;-85
2021/01/24 02:42:55;;;;;;;0.00;0.00;;;3.00;99.90;;;;;;5012440;28;20192;-86
2021/01/24 02:45:21;;;;;;;0.70;0.20;;;3.00;99.90;;;;;;5004721;28;20183;-85
2021/01/24 02:47:49;;;;;;;0.10;0.10;;;3.00;99.90;;;;;;5011777;28;20191;-85
2021/01/24 02:50:16;;;;;;;0.67;0.67;;;2.90;99.90;;;;;;5011117;28;20203;-85
2021/01/24 02:52:43;;;;;;;0.07;0.07;;;3.00;99.90;;;;;;5012235;28;20602;-85
2021/01/24 02:55:09;;;;;;;0.17;0.17;;;3.10;99.90;;;;;;5000289;28;20195;-84
2021/01/24 02:57:37;;;;;;;0.10;0.10;;;3.00;99.90;;;;;;5006658;28;20296;-86
2021/01/24 03:00:04;;;;;;;0.10;0.10;;;3.10;99.90;;;;;;5011235;28;20664;-84
2021/01/24 03:02:30;;;;;;;0.00;0.00;;;3.10;99.90;;;;;;5002793;28;20176;-84
2021/01/24 03:04:55;;;;;;;0.10;0.10;;;3.10;99.90;;;;;;5011575;28;20202;-85
2021/01/24 03:07:21;;;;;;;0.10;0.10;;;3.00;99.90;;;;;;5012240;28;20248;-84
2021/01/24 03:09:47;;;;;;;0.00;0.00;;;3.00;99.90;;;;;;5011451;28;20694;-84
2021/01/24 03:12:14;;;;;;;0.43;0.30;;;2.90;99.90;;;;;;5012529;28;20730;-84
2021/01/24 03:14:41;;;;;;;0.30;0.30;;;2.90;99.90;;;;;;5009345;28;20194;-87
2021/01/24 03:17:07;;;;;;;0.10;0.10;;;2.80;99.90;;;;;;5013202;28;20305;-85
2021/01/24 03:19:34;;;;;;;0.20;0.20;;;2.80;99.90;;;;;;5011295;28;20605;-89
2021/01/24 03:22:01;;;;;;;0.10;0.10;;;2.80;99.90;;;;;;5012028;28;20202;-86
2021/01/24 03:24:29;;;;;;;0.10;0.10;;;2.80;99.90;;;;;;5012175;28;20545;-84
2021/01/24 03:26:56;;;;;;;0.20;0.20;;;2.80;99.90;;;;;;5011513;28;20188;-84
2021/01/24 03:29:21;;;;;;;0.10;0.10;;;2.70;99.90;;;;;;5002332;28;20200;-87
2021/01/24 03:31:47;;;;;;;0.10;0.10;;;2.80;99.90;;;;;;5009188;28;20669;-84
2021/01/24 03:34:21;;;;;;;0.10;0.10;;;2.80;99.90;;;;;;5012117;28;20553;-83
2021/01/24 03:36:49;;;;;;;0.00;0.00;;;2.80;99.90;;;;;;5011034;28;22191;-84
2021/01/24 03:39:15;;;;;;;0.10;0.10;;;2.80;99.90;;;;;;5013193;28;20281;-83
2021/01/24 03:41:41;;;;;;;0.00;0.00;;;2.80;99.90;;;;;;5011471;28;20195;-83
2021/01/24 03:44:06;;;;;;;0.00;0.00;;;2.80;99.90;;;;;;5012674;28;20636;-84
2021/01/24 03:46:33;;;;;;;0.10;0.10;;;2.80;99.90;;;;;;5010860;28;20190;-84
2021/01/24 03:49:00;;;;;;;0.00;0.00;;;2.70;99.90;;;;;;5012259;28;20257;-86
2021/01/24 03:51:26;;;;;;;0.07;0.07;;;2.80;99.90;;;;;;5011000;28;20191;-85
2021/01/24 03:53:51;;;;;;;0.07;0.07;;;2.80;99.90;;;;;;5000602;28;20667;-85
2021/01/24 03:56:17;;;;;;;0.10;0.10;;;2.80;99.90;;;;;;5010885;28;20289;-84
2021/01/24 03:58:42;;;;;;;0.00;0.00;;;2.80;99.90;;;;;;5011265;28;20234;-85
2021/01/24 04:01:08;;;;;;;0.00;0.00;;;2.90;99.90;;;;;;5011396;28;20183;-86
2021/01/24 04:03:33;;;;;;;0.10;0.10;;;2.90;99.90;;;;;;5012234;28;20186;-84
2021/01/24 04:05:59;;;;;;;0.10;0.10;;;2.90;99.90;;;;;;5011313;28;20176;-84
2021/01/24 04:08:24;;;;;;;0.00;0.00;;;2.90;99.90;;;;;;5013258;28;20625;-85
2021/01/24 04:10:50;;;;;;;0.10;0.10;;;2.90;99.90;;;;;;5011753;28;20655;-86
2021/01/24 04:13:15;;;;;;;0.00;0.00;;;2.90;99.90;;;;;;5011171;28;20648;-84
2021/01/24 04:15:41;;;;;;;0.10;0.10;;;2.90;99.90;;;;;;5009114;28;20179;-86
2021/01/24 04:18:06;;;;;;;0.10;0.10;;;2.80;99.90;;;;;;5011018;28;20577;-84
2021/01/24 04:20:32;;;;;;;0.10;0.10;;;2.80;99.90;;;;;;5010273;28;20182;-85
2021/01/24 04:23:16;;;;;;;0.07;0.07;;;2.80;99.90;;;;;;5008986;28;20690;-85
2021/01/24 04:25:42;;;;;;;0.10;0.10;;;2.80;99.90;;;;;;4998903;28;20179;-84
2021/01/24 04:28:08;;;;;;;0.10;0.10;;;2.90;99.90;;;;;;5011815;28;20183;-84
2021/01/24 04:30:33;;;;;;;0.10;0.10;;;2.90;99.90;;;;;;5010676;28;20252;-84
2021/01/24 04:32:59;;;;;;;0.10;0.10;;;2.80;99.90;;;;;;5011688;28;20187;-84
2021/01/24 04:35:25;;;;;;;0.10;0.10;;;2.90;99.90;;;;;;5012356;28;20277;-86
2021/01/24 04:37:51;;;;;;;0.00;0.00;;;2.90;99.90;;;;;;5010720;28;20302;-84
2021/01/24 04:40:17;;;;;;;0.07;0.07;;;2.90;99.90;;;;;;5015666;28;20199;-84
2021/01/24 04:42:43;;;;;;;0.00;0.00;;;2.80;99.90;;;;;;5014315;28;20702;-84
2021/01/24 04:45:21;;;;;;;0.10;0.10;;;2.80;99.90;;;;;;5015642;28;20187;-84
2021/01/24 04:47:47;;;;;;;0.10;0.10;;;2.80;99.90;;;;;;5014288;28;20997;-84
2021/01/24 04:50:13;;;;;;;0.10;0.10;;;2.80;99.90;;;;;;5012217;28;20731;-87
2021/01/24 04:52:39;;;;;;;0.00;0.00;;;2.80;99.90;;;;;;5015410;28;20187;-85
2021/01/24 04:55:05;;;;;;;0.00;0.00;;;2.80;99.90;;;;;;5015261;28;20230;-85
2021/01/24 04:57:31;;;;;;;0.10;0.10;;;2.70;99.90;;;;;;5014926;28;20206;-85
2021/01/24 04:59:57;;;;;;;0.00;0.00;;;2.70;99.90;;;;;;5013483;28;20230;-85
2021/01/24 05:02:22;;;;;;;0.00;0.00;;;2.70;99.90;;;;;;5013642;28;20201;-85
2021/01/24 05:04:50;;;;;;;0.10;0.10;;;2.60;99.90;;;;;;5014331;28;20237;-84
2021/01/24 05:07:16;;;;;;;0.07;0.07;;;2.60;99.90;;;;;;5007055;28;20200;-84
2021/01/24 05:09:47;;;;;;;0.10;0.10;;;2.60;99.90;;;;;;5013370;28;20576;-84
2021/01/24 05:12:13;;;;;;;0.00;0.00;;;2.60;99.90;;;;;;5014190;28;20719;-85
2021/01/24 05:14:40;;;;;;;0.00;0.00;;;2.60;99.90;;;;;;5014212;28;20202;-85
2021/01/24 05:17:06;;;;;;;0.20;0.20;;;2.60;99.90;;;;;;5015007;28;20199;-84
2021/01/24 05:19:37;;;;;;;0.00;0.00;;;2.60;99.90;;;;;;5013386;28;20214;-84
2021/01/24 05:22:04;;;;;;;0.00;0.00;;;2.60;99.90;;;;;;5013438;28;20210;-86
2021/01/24 05:24:31;;;;;;;0.07;0.07;;;2.50;99.90;;;;;;5013477;28;20187;-84
2021/01/24 05:27:07;;;;;;;0.10;0.10;;;2.50;99.90;;;;;;5013254;28;20213;-85
2021/01/24 05:29:36;;;;;;;0.00;0.00;;;2.50;99.90;;;;;;5014200;28;20739;-86
2021/01/24 05:32:02;;;;;;;0.20;0.20;;;2.50;99.90;;;;;;5012705;28;20303;-84
2021/01/24 05:34:36;;;;;;;0.03;0.03;;;2.50;99.90;;;;;;5007287;28;20657;-84
2021/01/24 05:37:02;;;;;;;0.10;0.10;;;2.50;99.90;;;;;;5014412;28;20202;-84
2021/01/24 05:39:31;;;;;;;0.10;0.10;;;2.50;99.90;;;;;;5014496;28;20206;-84
2021/01/24 05:41:58;;;;;;;0.20;0.20;;;2.50;99.90;;;;;;5002805;28;20191;-84
2021/01/24 05:44:25;;;;;;;0.10;0.10;;;2.50;99.90;;;;;;5013075;28;20183;-84
2021/01/24 05:46:54;;;;;;;0.10;0.10;;;2.50;99.90;;;;;;5013171;28;20596;-84
2021/01/24 05:49:22;;;;;;;0.47;0.47;;;2.50;99.90;;;;;;5015195;28;20283;-84
2021/01/24 05:51:59;;;;;;;0.00;0.00;;;2.50;99.90;;;;;;5002964;28;20190;-85
2021/01/24 05:54:45;;;;;;;0.00;0.00;;;2.50;99.90;;;;;;5013994;28;20221;-84
2021/01/24 05:57:11;;;;;;;0.27;0.27;;;2.50;99.90;;;;;;5012726;28;20636;-84
2021/01/24 05:59:58;;;;;;;0.10;0.10;;;2.50;99.90;;;;;;5012666;28;20239;-84
2021/01/24 06:02:25;;;;;;;0.10;0.10;;;2.40;99.90;;;;;;5011406;28;20179;-85
2021/01/24 06:04:50;;;;;;;0.10;0.10;;;2.40;99.90;;;;;;5014620;28;20196;-85
2021/01/24 06:07:18;;;;;;;0.10;0.10;;;2.40;99.90;;;;;;4995759;28;20553;-85
2021/01/24 06:09:44;;;;;;;1.70;0.20;;;2.40;99.90;;;;;;5012405;28;20269;-85
2021/01/24 06:12:11;;;;;;;0.10;0.10;;;2.40;99.90;;;;;;5014442;28;20306;-86
2021/01/24 06:14:59;;;;;;;0.10;0.10;;;2.40;99.90;;;;;;5012871;28;20225;-86
2021/01/24 06:17:45;;;;;;;0.00;0.00;;;2.40;99.90;;;;;;5012349;28;20206;-86
2021/01/24 06:20:15;;;;;;;1.53;0.57;;;2.40;99.90;;;;;;5013079;28;20203;-87
2021/01/24 06:22:47;;;;;;;0.33;0.33;;;2.40;99.90;;;;;;5012786;28;20180;-87
2021/01/24 06:25:35;;;;;;;0.10;0.10;;;2.40;99.90;;;;;;5012155;28;20188;-85
2021/01/24 06:28:17;;;;;;;0.07;0.07;;;2.40;99.90;;;;;;5012684;28;20194;-87
2021/01/24 06:30:47;;;;;;;0.10;0.10;;;2.40;99.90;;;;;;5002022;28;20686;-84
2021/01/24 06:33:21;;;;;;;0.20;0.20;;;2.30;99.90;;;;;;5012217;28;20230;-84
2021/01/24 06:35:51;;;;;;;0.00;0.00;;;2.40;99.90;;;;;;5012592;28;20676;-84
2021/01/24 06:38:34;;;;;;;0.87;0.43;;;2.30;99.90;;;;;;5012038;28;20207;-84
2021/01/24 06:41:04;;;;;;;0.17;0.17;;;2.30;99.90;;;;;;5011603;28;20195;-84
2021/01/24 06:43:36;;;;;;;1.23;0.37;;;2.30;99.90;;;;;;5013451;28;20178;-85
2021/01/24 06:46:03;;;;;;;0.10;0.10;;;2.40;99.90;;;;;;5012029;28;20184;-84
2021/01/24 06:49:01;;;;;;;0.20;0.20;;;2.40;99.90;;;;;;5013202;28;20706;-83
2021/01/24 06:51:30;;;;;;;0.10;0.10;;;2.40;99.90;;;;;;4975536;28;20206;-84
2021/01/24 06:53:55;;;;;;;0.30;0.30;;;2.40;99.90;;;;;;5012244;28;20191;-83
2021/01/24 06:56:21;;;;;;;0.30;0.20;;;2.40;99.90;;;;;;5011151;28;20245;-84
2021/01/24 06:58:49;;;;;;;0.07;0.07;;;2.30;99.90;;;;;;5012521;28;20235;-87
2021/01/24 07:01:37;;;;;;;0.37;0.23;;;2.30;99.90;;;;;;5011047;28;20287;-86
2021/01/24 07:04:21;;;;;;;0.30;0.30;;;2.20;99.90;;;;;;5011590;28;20187;-86
2021/01/24 07:06:48;;;;;;;0.13;0.13;;;2.20;99.90;;;;;;5011814;28;20647;-86
2021/01/24 07:09:26;;;;;;;0.50;0.50;;;2.20;99.90;;;;;;5011218;28;20203;-87
2021/01/24 07:12:03;;;;;;;0.13;0.13;;;2.10;99.90;;;;;;5010952;28;20183;-86
2021/01/24 07:14:34;;;;;;;0.10;0.10;;;2.10;99.90;;;;;;5007747;28;20206;-86
2021/01/24 07:17:07;;;;;;;0.10;0.10;;;2.10;99.90;;;;;;5011501;28;20705;-84
2021/01/24 07:19:38;;;;;;;0.10;0.10;;;2.10;99.90;;;;;;5009294;28;20806;-87
2021/01/24 07:22:05;;;;;;;0.10;0.10;;;2.10;99.90;;;;;;5011341;28;20183;-85
2021/01/24 07:24:31;;;;;;;0.10;0.10;;;2.10;99.90;;;;;;5011531;28;20646;-85
2021/01/24 07:26:57;;;;;;;0.10;0.10;;;2.10;99.90;;;;;;5009820;28;20278;-85
2021/01/24 07:29:23;;;;;;;0.10;0.10;;;2.00;99.90;;;;;;5011201;28;20207;-85
2021/01/24 07:31:49;;;;;;;2.73;0.50;;;2.00;99.90;;;;;;5000769;28;20179;-85
2021/01/24 07:34:18;;;;;;;0.00;0.00;;;2.00;99.90;;;;;;5007972;28;20202;-85
2021/01/24 07:36:52;;;;;;;1.23;0.20;;;2.00;99.90;;;;;;5008421;28;20190;-85
2021/01/24 07:39:19;;;;;;;0.17;0.17;;;2.00;99.90;;;;;;5001698;28;20199;-85
2021/01/24 07:41:46;;;;;;;0.10;0.10;;;2.00;99.90;;;;;;5010370;28;20198;-85
2021/01/24 07:44:12;;;;;;;0.00;0.00;;;2.00;99.90;;;;;;5010861;28;20182;-85
2021/01/24 07:46:43;;;;;;;0.10;0.10;;;2.00;99.90;;;;;;5007751;28;20269;-84
2021/01/24 07:49:09;;;;;;;0.10;0.10;;;2.00;99.90;;;;;;5013263;28;20210;-85
2021/01/24 07:51:35;;;;;;;0.77;0.30;;;2.00;99.90;;;;;;5010719;28;20206;-85
2021/01/24 07:54:01;;;;;;;0.40;0.40;;;2.00;99.90;;;;;;5010926;28;20182;-85
2021/01/24 07:56:27;;;;;;;0.10;0.10;;;1.90;99.90;;;;;;5012313;28;20199;-86
2021/01/24 07:58:54;;;;;;;0.10;0.10;;;2.00;99.90;;;;;;5010948;28;20738;-85
2021/01/24 08:01:20;;;;;;;1.07;0.87;;;2.00;99.90;;;;;;5010191;28;20548;-85
2021/01/24 08:03:47;;;;;;;0.20;0.20;;;1.90;99.90;;;;;;5010967;28;20190;-84
2021/01/24 08:06:13;;;;;;;0.10;0.10;;;1.90;99.90;;;;;;5011345;28;20226;-85
2021/01/24 08:08:48;;;;;;;0.10;0.10;;;1.90;99.90;;;;;;5012487;28;20261;-87
2021/01/24 08:11:14;;;;;;;0.33;0.33;;;1.90;99.90;;;;;;4998094;28;20361;-85
2021/01/24 08:13:45;;;;;;;0.10;0.10;;;2.00;99.90;;;;;;5012406;28;20685;-85
2021/01/24 08:16:16;;;;;;;0.10;0.10;;;2.00;99.90;;;;;;5015770;28;20321;-84
2021/01/24 08:18:44;;;;;;;0.10;0.10;;;2.00;99.90;;;;;;5015160;28;20210;-85
2021/01/24 08:21:10;;;;;;;0.27;0.27;;;2.00;99.90;;;;;;5015254;28;20186;-86
2021/01/24 08:23:36;;;;;;;0.07;0.07;;;2.00;99.90;;;;;;5016681;28;20171;-87
2021/01/24 08:26:06;;;;;;;0.17;0.17;;;2.00;99.90;;;;;;5015183;28;20640;-84
2021/01/24 08:28:32;;;;;;;0.33;0.33;;;2.00;99.90;;;;;;5014821;28;20576;-84
2021/01/24 08:31:01;;;;;;;0.10;0.10;;;2.00;99.90;;;;;;5010474;28;20175;-84
2021/01/24 08:33:27;;;;;;;0.10;0.10;;;2.00;99.90;;;;;;5009140;28;20176;-83
2021/01/24 08:35:53;;;;;;;0.33;0.33;;;2.10;99.90;;;;;;5008942;28;20277;-84
2021/01/24 08:38:20;;;;;;;0.10;0.10;;;2.10;99.90;;;;;;5014106;28;20737;-84
2021/01/24 08:40:48;;;;;;;0.33;0.33;;;2.10;99.90;;;;;;5013477;28;20171;-84
2021/01/24 08:43:16;;;;;;;0.10;0.10;;;2.10;99.90;;;;;;5014529;28;20191;-84
2021/01/24 08:45:42;;;;;;;0.03;0.03;;;2.10;99.90;;;;;;5014231;28;20175;-84
2021/01/24 08:48:14;;;;;;;0.03;0.03;;;2.10;99.90;;;;;;5014421;28;20201;-84
2021/01/24 08:50:40;;;;;;;0.27;0.27;;;2.10;99.90;;;;;;5014071;28;20183;-85
2021/01/24 08:53:07;;;;;;;0.30;0.30;;;2.20;99.90;;;;;;5013772;28;20257;-85
2021/01/24 08:55:49;;;;;;;0.17;0.17;;;2.10;99.90;;;;;;5014622;28;20686;-84
2021/01/24 08:58:28;;;;;;;0.17;0.17;;;2.20;99.90;;;;;;5002874;28;20249;-85
2021/01/24 09:01:05;;;;;;;1.03;1.03;;;2.20;99.90;;;;;;5009144;28;20278;-84
2021/01/24 09:03:30;;;;;;;0.20;0.20;;;2.20;99.90;;;;;;5014269;28;20178;-84
2021/01/24 09:06:18;;;;;;;0.30;0.13;;;2.20;99.90;;;;;;5013986;28;20274;-85
2021/01/24 09:08:59;;;;;;;0.23;0.23;;;2.30;99.90;;;;;;5010478;28;20203;-84
2021/01/24 09:11:24;;;;;;;0.07;0.07;;;2.30;99.90;;;;;;5013258;28;20229;-84
2021/01/24 09:13:50;;;;;;;0.13;0.13;;;2.40;99.90;;;;;;5013015;28;20183;-84
2021/01/24 09:16:19;;;;;;;0.10;0.10;;;2.40;99.90;;;;;;5013910;28;20176;-84
2021/01/24 09:18:45;;;;;;;0.27;0.27;;;2.40;99.90;;;;;;5013231;28;20213;-84
2021/01/24 09:21:10;;;;;;;0.10;0.10;;;2.50;99.90;;;;;;5011142;28;20174;-85
2021/01/24 09:23:36;;;;;;;0.10;0.10;;;2.50;99.90;;;;;;5010397;28;20183;-85
2021/01/24 09:26:01;;;;;;;0.10;0.10;;;2.60;99.90;;;;;;5013768;28;20183;-83
2021/01/24 09:28:27;;;;;;;0.40;0.40;;;2.60;99.90;;;;;;5012283;28;20211;-85
2021/01/24 09:30:53;;;;;;;0.50;0.50;;;2.60;99.90;;;;;;5011774;28;20270;-84
2021/01/24 09:33:19;;;;;;;0.10;0.10;;;2.60;99.90;;;;;;5013558;28;20257;-84
2021/01/24 09:35:45;;;;;;;0.00;0.00;;;2.70;99.90;;;;;;5013203;28;20222;-84
2021/01/24 09:38:11;;;;;;;0.10;0.10;;;2.60;99.90;;;;;;5018265;28;20276;-84
2021/01/24 09:40:36;;;;;;;0.00;0.00;;;2.70;99.90;;;;;;5012963;28;20187;-85
2021/01/24 09:43:03;;;;;;;0.10;0.10;;;2.80;99.90;;;;;;5013026;28;20187;-84
2021/01/24 09:45:28;;;;;;;0.53;0.53;;;2.70;99.90;;;;;;5007155;28;20187;-84
2021/01/24 09:47:55;;;;;;;0.00;0.00;;;2.80;99.90;;;;;;5026959;28;20555;-84
2021/01/24 09:50:22;;;;;;;0.10;0.10;;;2.80;99.90;;;;;;5010279;28;20262;-84
2021/01/24 09:52:48;;;;;;;0.30;0.30;;;2.90;99.90;;;;;;5013437;28;20752;-84
2021/01/24 09:55:14;;;;;;;0.07;0.07;;;2.90;99.90;;;;;;5010536;28;20187;-84
2021/01/24 09:57:39;;;;;;;0.23;0.23;;;3.00;99.90;;;;;;5010567;28;20207;-84
2021/01/24 10:00:07;;;;;;;0.10;0.10;;;3.10;99.90;;;;;;5012397;28;20207;-84
2021/01/24 10:02:32;;;;;;;0.10;0.10;;;3.10;99.90;;;;;;5016217;28;20564;-84
2021/01/24 10:04:58;;;;;;;0.27;0.27;;;3.20;99.90;;;;;;5011744;28;20198;-83
2021/01/24 10:07:35;;;;;;;0.20;0.20;;;3.20;99.90;;;;;;5013807;28;20183;-84
2021/01/24 10:10:00;;;;;;;0.40;0.30;;;3.20;99.90;;;;;;5008393;28;20302;-84
2021/01/24 10:12:26;;;;;;;0.17;0.17;;;3.30;99.90;;;;;;5010504;28;20285;-85
2021/01/24 10:14:51;;;;;;;0.67;0.40;;;3.40;99.90;;;;;;5008519;28;20648;-84
2021/01/24 10:17:17;;;;;;;0.10;0.10;;;3.40;99.90;;;;;;5013023;28;20210;-85
2021/01/24 10:19:42;;;;;;;0.20;0.20;;;3.50;99.90;;;;;;5012543;28;20668;-84
2021/01/24 10:22:08;;;;;;;0.03;0.03;;;3.50;99.90;;;;;;5013074;28;20187;-84
2021/01/24 10:24:44;;;;;;;0.40;0.20;;;3.60;99.90;;;;;;5009367;28;20176;-85
2021/01/24 10:27:10;;;;;;;0.30;0.30;;;3.60;99.90;;;;;;5001481;28;20669;-83
2021/01/24 10:29:35;;;;;;;0.10;0.10;;;3.60;99.90;;;;;;5004344;28;20291;-84
2021/01/24 10:32:01;;;;;;;0.10;0.10;;;3.70;99.90;;;;;;5011964;28;20183;-85
2021/01/24 10:34:27;;;;;;;0.20;0.20;;;3.70;99.90;;;;;;5024454;28;20308;-83
2021/01/24 10:36:52;;;;;;;0.10;0.10;;;3.70;99.90;;;;;;5009624;28;20227;-83
2021/01/24 10:39:18;;;;;;;0.10;0.10;;;3.80;99.90;;;;;;5010255;28;20215;-84
2021/01/24 10:41:43;;;;;;;0.10;0.10;;;3.80;99.90;;;;;;5007390;28;20695;-86
2021/01/24 10:44:09;;;;;;;0.10;0.10;;;3.90;99.90;;;;;;5012882;28;20254;-83
2021/01/24 10:46:35;;;;;;;0.30;0.30;;;3.90;99.90;;;;;;5010871;28;20237;-84
2021/01/24 10:49:02;;;;;;;0.20;0.20;;;4.00;99.90;;;;;;5006632;28;20731;-83
2021/01/24 10:51:28;;;;;;;0.10;0.10;;;4.00;99.90;;;;;;5001966;28;20587;-84
2021/01/24 10:53:53;;;;;;;0.00;0.00;;;4.00;99.90;;;;;;5008753;28;20202;-86
2021/01/24 10:56:19;;;;;;;0.10;0.10;;;4.00;99.90;;;;;;5007554;28;20275;-86
2021/01/24 10:58:44;;;;;;;0.10;0.10;;;4.00;99.90;;;;;;5011977;28;20217;-82
2021/01/24 11:01:10;;;;;;;0.10;0.10;;;4.00;99.90;;;;;;5011440;28;20183;-83
2021/01/24 11:03:35;;;;;;;0.10;0.10;;;4.00;99.90;;;;;;5009107;28;20184;-85
2021/01/24 11:06:01;;;;;;;0.10;0.10;;;4.00;99.90;;;;;;5012285;28;20213;-83
2021/01/24 11:08:27;;;;;;;0.20;0.20;;;3.90;99.90;;;;;;5015175;28;20547;-83
2021/01/24 11:10:52;;;;;;;0.20;0.20;;;3.90;99.90;;;;;;5012907;28;20558;-83
2021/01/24 11:13:18;;;;;;;0.47;0.47;;;3.80;99.90;;;;;;5012127;28;20190;-84
2021/01/24 11:15:45;;;;;;;0.03;0.03;;;3.70;99.90;;;;;;5011917;28;20182;-83
2021/01/24 11:18:10;;;;;;;0.37;0.33;;;3.70;99.90;;;;;;5006504;28;20210;-84
2021/01/24 11:20:36;;;;;;;0.43;0.20;;;3.70;99.90;;;;;;5010063;28;20175;-83
2021/01/24 11:23:01;;;;;;;0.57;0.57;;;3.70;99.90;;;;;;5013146;28;20207;-86
2021/01/24 11:25:27;;;;;;;0.00;0.00;;;3.80;99.90;;;;;;5011198;28;20191;-83
2021/01/24 11:27:52;;;;;;;0.20;0.10;;;3.80;99.90;;;;;;5006837;28;20188;-82
2021/01/24 11:30:19;;;;;;;0.10;0.10;;;3.70;99.90;;;;;;5011043;28;20290;-84
2021/01/24 11:32:44;;;;;;;0.23;0.23;;;3.60;99.90;;;;;;5006385;28;20201;-82
2021/01/24 11:35:12;;;;;;;0.33;0.33;;;3.60;99.90;;;;;;5009956;28;20191;-84
2021/01/24 11:37:51;;;;;;;0.00;0.00;;;3.60;99.90;;;;;;5011179;28;20218;-84
2021/01/24 11:40:17;;;;;;;0.50;0.20;;;3.60;99.90;;;;;;5027509;28;20234;-83
2021/01/24 11:42:53;;;;;;;0.20;0.20;;;3.60;99.90;;;;;;5008717;28;20199;-84
2021/01/24 11:45:21;;;;;;;0.13;0.13;;;3.60;99.90;;;;;;5013397;28;20183;-84
2021/01/24 11:47:46;;;;;;;0.10;0.10;;;3.60;99.90;;;;;;5011886;28;20188;-84
2021/01/24 11:50:12;;;;;;;0.20;0.20;;;3.50;99.90;;;;;;5004545;28;20213;-84
2021/01/24 11:52:47;;;;;;;0.23;0.20;;;3.50;99.90;;;;;;5012028;28;20198;-83
2021/01/24 11:55:16;;;;;;;0.10;0.10;;;3.60;99.90;;;;;;5011763;28;20184;-83
2021/01/24 11:57:46;;;;;;;0.10;0.10;;;3.70;99.90;;;;;;5010076;28;20220;-84
2021/01/24 12:00:12;;;;;;;0.63;0.40;;;3.70;99.90;;;;;;5008020;28;20202;-85
2021/01/24 12:02:38;;;;;;;0.60;0.10;;;3.70;99.90;;;;;;5013817;28;20191;-86
2021/01/24 12:05:04;;;;;;;0.20;0.20;;;3.70;99.90;;;;;;5011492;28;20191;-83
2021/01/24 12:07:30;;;;;;;0.10;0.10;;;3.80;99.90;;;;;;5009802;28;20556;-85
2021/01/24 12:09:55;;;;;;;0.10;0.10;;;3.80;99.90;;;;;;5013043;28;20218;-91
2021/01/24 12:12:21;;;;;;;0.17;0.17;;;3.90;99.90;;;;;;5012599;28;20191;-84
2021/01/24 12:14:46;;;;;;;0.10;0.10;;;4.00;99.90;;;;;;5012880;28;20203;-86
2021/01/24 12:17:12;;;;;;;0.30;0.30;;;4.00;99.90;;;;;;5015316;28;20203;-83
2021/01/24 12:19:37;;;;;;;0.57;0.27;;;4.00;99.90;;;;;;5013320;28;20210;-85
2021/01/24 12:22:03;;;;;;;0.23;0.23;;;4.10;99.90;;;;;;5013189;28;20179;-83
2021/01/24 12:24:28;;;;;;;0.50;0.23;;;4.20;99.90;;;;;;5012447;28;20194;-84
2021/01/24 12:26:54;;;;;;;0.10;0.10;;;4.30;99.90;;;;;;5012491;28;20238;-85
2021/01/24 12:29:20;;;;;;;0.10;0.10;;;4.30;99.90;;;;;;5012482;28;20638;-84
2021/01/24 12:31:45;;;;;;;0.40;0.40;;;4.40;99.90;;;;;;5011706;28;20294;-85
2021/01/24 12:34:11;;;;;;;0.20;0.20;;;4.50;99.90;;;;;;5013344;28;20187;-86
2021/01/24 12:36:37;;;;;;;0.30;0.30;;;4.50;99.90;;;;;;5012610;28;20230;-85
2021/01/24 12:39:03;;;;;;;0.03;0.03;;;4.50;99.90;;;;;;5018143;28;20215;-84
2021/01/24 12:41:29;;;;;;;0.20;0.20;;;4.50;99.90;;;;;;5011582;28;20252;-85
2021/01/24 12:43:55;;;;;;;0.10;0.10;;;4.50;99.90;;;;;;5011893;28;20183;-84
2021/01/24 12:46:20;;;;;;;0.10;0.10;;;4.50;99.90;;;;;;5012111;28;20188;-84
2021/01/24 12:48:46;;;;;;;0.30;0.30;;;4.50;99.90;;;;;;5013433;28;20197;-85
2021/01/24 12:51:11;;;;;;;0.10;0.10;;;4.50;99.90;;;;;;5011498;28;20996;-87
2021/01/24 12:53:37;;;;;;;0.10;0.10;;;4.70;99.90;;;;;;5011636;28;20276;-83
2021/01/24 12:56:03;;;;;;;0.30;0.30;;;4.90;99.90;;;;;;5010973;28;20190;-84
2021/01/24 12:58:29;;;;;;;0.10;0.10;;;5.00;99.90;;;;;;5011142;28;20258;-84
2021/01/24 13:00:55;;;;;;;0.87;0.20;;;5.00;99.90;;;;;;5011725;28;20179;-85
2021/01/24 13:03:20;;;;;;;0.10;0.10;;;5.00;99.90;;;;;;5014440;28;20263;-85